Time;durP1;ratioP1;P1;durP2;ratioP2;P2;SDS_P1;SDS_P2;PMS_P1;PMS_P2;Temp;Humidity;BMP_temperature;BMP_pressure;BME280_temperature;BME280_humidity;BME280_pressure;Samples;Min_cycle;Max_cycle;Signal;HPM_P1;HPM_P2
2023/09/23 00:00:13;;;;;;;4.47;1.83;;;13.00;99.90;;;;;;5051438;28;20512;-65
2023/09/23 00:02:43;;;;;;;6.00;2.50;;;13.00;99.90;;;;;;5052641;28;20040;-65
2023/09/23 00:05:09;;;;;;;4.30;2.13;;;13.00;99.90;;;;;;5052389;28;20447;-65
2023/09/23 00:07:36;;;;;;;5.13;2.00;;;13.00;99.90;;;;;;5051208;28;20114;-65
2023/09/23 00:10:05;;;;;;;4.88;1.80;;;13.00;99.90;;;;;;5052435;28;20049;-65
2023/09/23 00:12:32;;;;;;;3.80;1.58;;;13.00;99.90;;;;;;5035613;28;20062;-65
2023/09/23 00:14:57;;;;;;;4.43;2.10;;;12.90;99.90;;;;;;5035403;28;20386;-65
2023/09/23 00:17:23;;;;;;;5.57;1.83;;;12.90;99.90;;;;;;5053085;28;20044;-65
2023/09/23 00:19:49;;;;;;;3.15;1.35;;;12.80;99.90;;;;;;5052205;28;20128;-65
2023/09/23 00:22:15;;;;;;;3.60;1.42;;;12.80;99.90;;;;;;5067611;28;20033;-66
2023/09/23 00:24:40;;;;;;;4.35;1.20;;;12.70;99.90;;;;;;5051929;28;20453;-65
2023/09/23 00:27:07;;;;;;;2.88;1.00;;;12.80;99.90;;;;;;5052043;28;20044;-65
2023/09/23 00:29:34;;;;;;;2.10;0.90;;;12.80;99.90;;;;;;5071653;28;20498;-65
2023/09/23 00:32:00;;;;;;;2.78;0.88;;;12.70;99.90;;;;;;5072056;28;20083;-65
2023/09/23 00:34:25;;;;;;;2.90;1.02;;;12.70;99.90;;;;;;5069994;28;20083;-65
2023/09/23 00:36:51;;;;;;;2.55;1.10;;;12.70;99.90;;;;;;5071354;28;20032;-65
2023/09/23 00:39:17;;;;;;;1.92;0.93;;;12.70;99.90;;;;;;5051656;28;20499;-66
2023/09/23 00:41:43;;;;;;;1.77;0.65;;;12.60;99.90;;;;;;5071119;28;20462;-66
2023/09/23 00:44:10;;;;;;;5.32;1.00;;;12.70;99.90;;;;;;5071490;28;20079;-66
2023/09/23 00:46:37;;;;;;;2.75;1.00;;;12.70;99.90;;;;;;5071750;28;20048;-65
2023/09/23 00:49:07;;;;;;;2.10;0.82;;;12.60;99.90;;;;;;5070198;28;20409;-66
2023/09/23 00:51:33;;;;;;;2.03;0.85;;;12.70;99.90;;;;;;5071370;28;20080;-66
2023/09/23 00:54:01;;;;;;;1.88;0.70;;;12.60;99.90;;;;;;5070928;28;20037;-66
2023/09/23 00:56:28;;;;;;;2.15;0.82;;;12.70;99.90;;;;;;5071720;28;20110;-65
2023/09/23 00:58:54;;;;;;;2.35;0.70;;;12.70;99.90;;;;;;5071218;28;20040;-65
2023/09/23 01:01:21;;;;;;;2.13;0.85;;;12.70;99.90;;;;;;5071121;28;20041;-66
2023/09/23 01:03:47;;;;;;;2.58;1.00;;;12.70;99.90;;;;;;5058652;28;20408;-66
2023/09/23 01:06:16;;;;;;;2.35;0.93;;;12.70;99.90;;;;;;5041241;28;20040;-66
2023/09/23 01:08:47;;;;;;;2.45;0.90;;;12.70;99.90;;;;;;5055629;28;20043;-65
2023/09/23 01:11:13;;;;;;;2.13;0.90;;;12.80;99.90;;;;;;5050592;28;20390;-66
2023/09/23 01:13:42;;;;;;;3.17;0.90;;;12.70;99.90;;;;;;5034473;28;20053;-66
2023/09/23 01:16:12;;;;;;;2.80;0.93;;;12.70;99.90;;;;;;5052287;28;20489;-66
2023/09/23 01:18:40;;;;;;;2.65;1.13;;;12.70;99.90;;;;;;5050836;28;20505;-66
2023/09/23 01:21:08;;;;;;;4.13;1.10;;;12.70;99.90;;;;;;5051185;28;20109;-66
2023/09/23 01:23:36;;;;;;;3.88;1.30;;;12.80;99.90;;;;;;5050541;28;20045;-66
2023/09/23 01:40:45;;;;;;;4.78;1.40;;;12.60;99.90;;;;;;5052002;28;20520;-66
2023/09/23 01:43:11;;;;;;;3.33;1.40;;;12.60;99.90;;;;;;5050833;28;20041;-66
2023/09/23 01:45:37;;;;;;;5.53;1.60;;;12.60;99.90;;;;;;5053599;28;20044;-66
2023/09/23 01:48:03;;;;;;;3.55;1.85;;;12.60;99.90;;;;;;5050755;28;20045;-66
2023/09/23 01:50:28;;;;;;;4.00;2.00;;;12.60;99.90;;;;;;5050038;28;20091;-65
2023/09/23 01:52:59;;;;;;;4.88;1.98;;;12.60;99.90;;;;;;5050224;28;20048;-65
2023/09/23 01:55:25;;;;;;;7.82;2.78;;;12.60;99.90;;;;;;5050611;28;20049;-65
2023/09/23 01:57:51;;;;;;;5.38;2.85;;;12.50;99.90;;;;;;5050328;28;20133;-65
2023/09/23 02:00:18;;;;;;;5.00;2.70;;;12.60;99.90;;;;;;5050160;28;20048;-66
2023/09/23 02:02:48;;;;;;;6.38;2.63;;;12.50;99.90;;;;;;5050227;28;20041;-65
2023/09/23 02:05:15;;;;;;;6.28;2.88;;;12.40;99.90;;;;;;5050803;28;20119;-66
2023/09/23 02:07:41;;;;;;;5.85;3.00;;;12.40;99.90;;;;;;5034225;28;20049;-66
2023/09/23 02:10:08;;;;;;;5.22;2.65;;;12.40;99.90;;;;;;5035633;28;20043;-65
2023/09/23 02:12:34;;;;;;;6.88;2.83;;;12.40;99.90;;;;;;5069506;28;20041;-66
2023/09/23 02:15:00;;;;;;;7.70;2.97;;;12.40;99.90;;;;;;5034359;28;20083;-66
2023/09/23 02:17:26;;;;;;;6.35;3.40;;;12.40;99.90;;;;;;5050423;28;20049;-65
2023/09/23 02:19:52;;;;;;;6.82;3.40;;;12.30;99.90;;;;;;5049474;28;20048;-65
2023/09/23 02:22:18;;;;;;;6.40;2.97;;;12.40;99.90;;;;;;5050476;28;20040;-65
2023/09/23 02:24:44;;;;;;;4.95;3.17;;;12.40;99.90;;;;;;5050168;28;20501;-65
2023/09/23 02:27:10;;;;;;;6.50;3.60;;;12.40;99.90;;;;;;5033085;28;20076;-65
2023/09/23 02:29:36;;;;;;;8.73;4.18;;;12.30;99.90;;;;;;5050122;28;20074;-65
2023/09/23 02:32:02;;;;;;;7.88;3.40;;;12.30;99.90;;;;;;5050246;28;20037;-65
2023/09/23 02:34:28;;;;;;;5.53;3.53;;;12.30;99.90;;;;;;5049098;28;20044;-65
2023/09/23 02:36:54;;;;;;;5.97;3.90;;;12.40;99.90;;;;;;5050693;28;20037;-65
2023/09/23 02:39:20;;;;;;;5.65;3.38;;;12.40;99.90;;;;;;5050421;28;20049;-65
2023/09/23 02:41:50;;;;;;;8.70;3.33;;;12.30;99.90;;;;;;5033032;28;20056;-65
2023/09/23 02:44:22;;;;;;;7.22;3.65;;;12.20;99.90;;;;;;5050318;28;20064;-65
2023/09/23 02:46:54;;;;;;;6.80;3.65;;;12.20;99.90;;;;;;5033556;28;20064;-65
2023/09/23 02:49:20;;;;;;;7.32;3.67;;;12.30;99.90;;;;;;5032690;28;20438;-65
2023/09/23 02:51:48;;;;;;;5.15;3.22;;;12.30;99.90;;;;;;5033702;28;20049;-65
2023/09/23 02:54:17;;;;;;;7.40;3.40;;;12.20;99.90;;;;;;5033430;28;20119;-65
2023/09/23 02:56:47;;;;;;;6.13;3.30;;;12.20;99.90;;;;;;5033564;28;20458;-65
2023/09/23 02:59:15;;;;;;;5.75;3.53;;;12.20;99.90;;;;;;5037490;28;20049;-65
2023/09/23 03:01:45;;;;;;;5.03;2.92;;;12.20;99.90;;;;;;5087216;28;20367;-65
2023/09/23 03:04:18;;;;;;;8.35;4.22;;;12.20;99.90;;;;;;5053823;28;20049;-65
2023/09/23 03:06:49;;;;;;;5.95;3.42;;;12.10;99.90;;;;;;5054082;28;20041;-65
2023/09/23 03:09:23;;;;;;;5.55;3.72;;;12.10;99.90;;;;;;5052714;28;20044;-65
2023/09/23 03:11:56;;;;;;;6.57;4.38;;;12.10;99.90;;;;;;5036761;28;20041;-65
2023/09/23 03:14:36;;;;;;;6.65;3.55;;;12.10;99.90;;;;;;5053270;28;20397;-65
2023/09/23 03:17:03;;;;;;;7.20;3.97;;;12.10;99.90;;;;;;5052870;28;20430;-65
2023/09/23 03:19:31;;;;;;;6.15;3.85;;;12.10;99.90;;;;;;5060966;28;20053;-65
2023/09/23 03:21:57;;;;;;;6.18;3.70;;;12.00;99.90;;;;;;5064214;28;20079;-65
2023/09/23 03:24:26;;;;;;;8.30;4.55;;;12.00;99.90;;;;;;5052682;28;20446;-65
2023/09/23 03:26:59;;;;;;;8.60;4.10;;;12.00;99.90;;;;;;5053075;28;20481;-65
2023/09/23 03:29:29;;;;;;;6.97;4.70;;;12.10;99.90;;;;;;5053209;28;20073;-65
2023/09/23 03:31:58;;;;;;;6.43;4.20;;;12.00;99.90;;;;;;5052807;28;20114;-65
2023/09/23 03:34:26;;;;;;;8.70;4.20;;;12.00;99.90;;;;;;5036360;28;20037;-65
2023/09/23 03:36:53;;;;;;;7.22;4.32;;;12.00;99.90;;;;;;5100845;28;20389;-65
2023/09/23 03:39:19;;;;;;;9.18;5.30;;;12.10;99.90;;;;;;5073123;28;20090;-65
2023/09/23 03:41:46;;;;;;;6.15;4.00;;;12.00;99.90;;;;;;5068345;28;20048;-65
2023/09/23 03:44:15;;;;;;;6.70;4.65;;;12.00;99.90;;;;;;5085481;28;20045;-65
2023/09/23 03:46:43;;;;;;;6.65;4.22;;;12.00;99.90;;;;;;5052766;28;20044;-65
2023/09/23 03:49:09;;;;;;;9.25;4.38;;;12.00;99.90;;;;;;5056227;28;20491;-65
2023/09/23 03:51:36;;;;;;;6.90;4.45;;;11.90;99.90;;;;;;5070331;28;20115;-65
2023/09/23 03:54:02;;;;;;;8.23;4.95;;;12.00;99.90;;;;;;5052872;28;20040;-65
2023/09/23 03:56:27;;;;;;;6.78;4.25;;;12.00;99.90;;;;;;5052485;28;20055;-65
2023/09/23 03:58:55;;;;;;;7.88;4.35;;;12.00;99.90;;;;;;5051905;28;20128;-65
2023/09/23 04:01:24;;;;;;;7.60;4.85;;;12.10;99.90;;;;;;5052733;28;20049;-65
2023/09/23 04:03:53;;;;;;;7.65;5.05;;;12.10;99.90;;;;;;5052406;28;20099;-65
2023/09/23 04:06:19;;;;;;;7.40;5.10;;;12.10;99.90;;;;;;5051621;28;20516;-65
2023/09/23 04:08:46;;;;;;;7.47;5.10;;;12.10;99.90;;;;;;5052285;28;20045;-65
2023/09/23 04:11:15;;;;;;;7.93;4.53;;;12.00;99.90;;;;;;5052198;28;20048;-65
2023/09/23 04:13:42;;;;;;;8.45;5.03;;;12.00;99.90;;;;;;5051584;28;20394;-65
2023/09/23 04:16:09;;;;;;;8.02;4.60;;;12.00;99.90;;;;;;5036052;28;20336;-65
2023/09/23 04:18:34;;;;;;;8.05;4.43;;;12.00;99.90;;;;;;5067095;28;20374;-65
2023/09/23 04:21:03;;;;;;;7.43;4.15;;;12.10;99.90;;;;;;5052035;28;20040;-65
2023/09/23 04:23:29;;;;;;;9.40;5.28;;;12.00;99.90;;;;;;5036096;28;20535;-65
2023/09/23 04:25:56;;;;;;;6.93;4.70;;;12.10;99.90;;;;;;5052588;28;20045;-65
2023/09/23 04:28:22;;;;;;;6.22;3.58;;;12.00;99.90;;;;;;5051281;28;20045;-65
2023/09/23 04:30:53;;;;;;;6.38;4.00;;;12.10;99.90;;;;;;5051794;28;20045;-65
2023/09/23 04:33:20;;;;;;;7.18;5.05;;;12.00;99.90;;;;;;5034543;28;20036;-65
2023/09/23 04:35:46;;;;;;;5.88;3.90;;;12.10;99.90;;;;;;5051768;28;20045;-65
2023/09/23 04:38:12;;;;;;;7.93;4.78;;;12.10;99.90;;;;;;5068422;28;20048;-65
2023/09/23 04:40:39;;;;;;;8.05;5.03;;;12.00;99.90;;;;;;5050931;28;20102;-65
2023/09/23 04:43:05;;;;;;;7.05;4.18;;;12.00;99.90;;;;;;5035037;28;20045;-65
2023/09/23 04:45:30;;;;;;;7.28;4.35;;;12.00;99.90;;;;;;5052101;28;20048;-65
2023/09/23 04:47:56;;;;;;;7.97;4.28;;;11.90;99.90;;;;;;5069382;28;20533;-65
2023/09/23 04:50:27;;;;;;;6.85;4.60;;;11.90;99.90;;;;;;5071215;28;20052;-65
2023/09/23 04:52:53;;;;;;;6.03;4.22;;;11.90;99.90;;;;;;5072201;28;20041;-65
2023/09/23 04:55:19;;;;;;;7.57;4.78;;;11.80;99.90;;;;;;5070309;28;20041;-65
2023/09/23 04:57:45;;;;;;;6.97;4.93;;;11.90;99.90;;;;;;5068455;28;20040;-65
2023/09/23 05:00:14;;;;;;;7.03;4.97;;;11.90;99.90;;;;;;5037492;28;20037;-65
2023/09/23 05:02:40;;;;;;;6.20;3.72;;;11.80;99.90;;;;;;5064972;28;20494;-65
2023/09/23 05:05:07;;;;;;;6.78;4.28;;;11.80;99.90;;;;;;5063996;28;20059;-65
2023/09/23 05:07:37;;;;;;;9.48;4.63;;;11.90;99.90;;;;;;5052256;28;20108;-65
2023/09/23 05:10:07;;;;;;;6.20;3.97;;;11.80;99.90;;;;;;5050682;28;20053;-65
2023/09/23 05:12:33;;;;;;;6.95;4.57;;;11.80;99.90;;;;;;5052655;28;20051;-65
2023/09/23 05:14:59;;;;;;;8.50;5.95;;;11.80;99.90;;;;;;5069352;28;20037;-62
2023/09/23 05:17:27;;;;;;;8.30;5.28;;;11.80;99.90;;;;;;5039240;28;20049;-65
2023/09/23 05:19:53;;;;;;;7.53;5.50;;;11.70;99.90;;;;;;5015262;28;20049;-65
2023/09/23 05:22:19;;;;;;;8.38;5.75;;;11.80;99.90;;;;;;5057106;28;20049;-65
2023/09/23 05:24:47;;;;;;;8.75;5.82;;;11.70;99.90;;;;;;5044868;28;20055;-65
2023/09/23 05:27:16;;;;;;;6.82;5.20;;;11.70;99.90;;;;;;5048293;28;20049;-65
2023/09/23 05:29:43;;;;;;;9.57;6.65;;;11.70;99.90;;;;;;5066570;28;20193;-65
2023/09/23 05:32:12;;;;;;;11.57;7.72;;;11.70;99.90;;;;;;5060196;28;20037;-65
2023/09/23 05:34:42;;;;;;;8.88;7.35;;;11.60;99.90;;;;;;5057772;28;20476;-65
2023/09/23 05:37:12;;;;;;;10.68;7.32;;;11.70;99.90;;;;;;5065753;28;20041;-65
2023/09/23 05:39:44;;;;;;;15.32;8.05;;;11.60;99.90;;;;;;5066947;28;20082;-65
2023/09/23 05:42:10;;;;;;;9.27;7.57;;;11.70;99.90;;;;;;5051368;28;20044;-65
2023/09/23 05:44:35;;;;;;;12.07;6.72;;;11.70;99.90;;;;;;5066825;28;20063;-65
2023/09/23 05:47:02;;;;;;;9.77;6.85;;;11.70;99.90;;;;;;5063541;28;20391;-65
2023/09/23 05:49:28;;;;;;;9.32;7.28;;;11.70;99.90;;;;;;5064151;28;20055;-65
2023/09/23 05:51:54;;;;;;;12.68;8.20;;;11.70;99.90;;;;;;5066908;28;20033;-65
2023/09/23 05:54:20;;;;;;;9.15;6.78;;;11.60;99.90;;;;;;5058366;28;20119;-65
2023/09/23 05:56:46;;;;;;;8.90;6.65;;;11.70;99.90;;;;;;5070748;28;20477;-65
2023/09/23 05:59:12;;;;;;;8.40;6.13;;;11.70;99.90;;;;;;5069608;28;20072;-64
2023/09/23 06:01:40;;;;;;;8.68;6.75;;;11.70;99.90;;;;;;5070415;28;20043;-64
2023/09/23 06:04:09;;;;;;;7.80;6.43;;;11.80;99.90;;;;;;5070802;28;20035;-65
2023/09/23 06:06:38;;;;;;;10.60;7.50;;;11.70;99.90;;;;;;5053114;28;20127;-65
2023/09/23 06:09:06;;;;;;;9.55;6.70;;;11.80;99.90;;;;;;5070876;28;20401;-65
2023/09/23 06:11:35;;;;;;;9.40;6.40;;;11.90;99.90;;;;;;5070352;28;20040;-65
2023/09/23 06:14:01;;;;;;;8.40;6.15;;;11.90;99.90;;;;;;5070270;28;20045;-65
2023/09/23 06:16:26;;;;;;;8.60;5.90;;;12.00;99.90;;;;;;5070303;28;20040;-65
2023/09/23 06:18:52;;;;;;;9.18;7.10;;;12.00;99.90;;;;;;5070932;28;20043;-65
2023/09/23 06:21:18;;;;;;;9.10;6.03;;;11.90;99.90;;;;;;5067198;28;20427;-65
2023/09/23 06:23:44;;;;;;;8.07;6.13;;;12.00;99.90;;;;;;5050326;28;20045;-65
2023/09/23 06:26:10;;;;;;;10.77;7.35;;;12.00;99.90;;;;;;5050070;28;20390;-65
2023/09/23 06:28:36;;;;;;;7.93;6.32;;;12.10;99.90;;;;;;5053469;28;20045;-65
2023/09/23 06:31:03;;;;;;;7.53;5.22;;;12.10;99.90;;;;;;5067150;28;20048;-65
2023/09/23 06:33:32;;;;;;;7.95;5.45;;;12.10;99.90;;;;;;5036340;28;20355;-65
2023/09/23 06:36:05;;;;;;;10.20;7.25;;;12.10;99.90;;;;;;5054187;28;20078;-65
2023/09/23 06:38:33;;;;;;;9.27;6.00;;;12.20;99.90;;;;;;5054037;28;20386;-65
2023/09/23 06:41:02;;;;;;;10.82;7.18;;;12.30;99.90;;;;;;5054739;28;20041;-65
2023/09/23 06:43:28;;;;;;;9.13;6.60;;;12.30;99.90;;;;;;5053837;28;20055;-65
2023/09/23 06:45:58;;;;;;;10.90;7.25;;;12.40;99.90;;;;;;5053865;28;20048;-65
2023/09/23 06:48:49;;;;;;;11.93;8.05;;;12.50;99.90;;;;;;5053037;28;20187;-65
2023/09/23 06:51:15;;;;;;;13.13;7.97;;;12.50;99.90;;;;;;5051098;28;20397;-65
2023/09/23 06:53:41;;;;;;;10.50;7.65;;;12.60;99.90;;;;;;5078907;28;20033;-65
2023/09/23 06:56:06;;;;;;;9.88;8.18;;;12.70;99.90;;;;;;5053913;28;20484;-65
2023/09/23 06:58:32;;;;;;;16.20;8.70;;;12.70;99.90;;;;;;5058977;28;20032;-65
2023/09/23 07:00:57;;;;;;;13.02;8.27;;;12.80;99.90;;;;;;5053037;28;20052;-65
2023/09/23 07:03:23;;;;;;;12.63;7.55;;;12.90;99.90;;;;;;5053436;28;20064;-65
2023/09/23 07:05:49;;;;;;;12.98;7.75;;;13.10;99.90;;;;;;5059369;28;20105;-65
2023/09/23 07:08:15;;;;;;;9.60;6.95;;;13.20;99.90;;;;;;5070757;28;20506;-65
2023/09/23 07:10:41;;;;;;;10.95;7.55;;;13.20;99.90;;;;;;5056286;28;20044;-65
2023/09/23 07:13:08;;;;;;;10.55;7.38;;;13.30;99.90;;;;;;5054526;28;20542;-65
2023/09/23 07:15:38;;;;;;;12.27;8.60;;;13.50;99.90;;;;;;5056450;28;20044;-65
2023/09/23 07:18:04;;;;;;;9.23;6.82;;;13.50;99.90;;;;;;5071800;28;20547;-65
2023/09/23 07:20:30;;;;;;;7.80;5.47;;;13.70;99.90;;;;;;5070473;28;20520;-65
2023/09/23 07:22:56;;;;;;;11.05;6.35;;;13.70;99.90;;;;;;5084953;28;20044;-65
2023/09/23 07:25:22;;;;;;;10.07;5.60;;;13.70;99.90;;;;;;5073272;28;20469;-65
2023/09/23 07:27:47;;;;;;;9.25;5.45;;;13.80;99.90;;;;;;5058667;28;20086;-65
2023/09/23 07:30:14;;;;;;;8.13;5.40;;;13.90;99.90;;;;;;5052336;28;20044;-66
2023/09/23 07:32:40;;;;;;;7.45;5.10;;;14.00;99.90;;;;;;5053111;28;20032;-66
2023/09/23 07:35:07;;;;;;;7.28;4.68;;;14.00;99.90;;;;;;5059719;28;20083;-65
2023/09/23 07:37:33;;;;;;;9.25;5.28;;;14.10;99.90;;;;;;5051765;28;20048;-65
2023/09/23 07:39:59;;;;;;;9.63;4.70;;;14.10;99.90;;;;;;5052942;28;20052;-66
2023/09/23 07:42:24;;;;;;;7.63;4.07;;;14.20;99.90;;;;;;5059744;28;20032;-65
2023/09/23 07:44:50;;;;;;;6.47;4.45;;;14.20;99.90;;;;;;5060783;28;20045;-65
2023/09/23 07:47:16;;;;;;;8.27;4.07;;;14.20;99.90;;;;;;5052685;28;20041;-65
2023/09/23 07:49:42;;;;;;;6.80;3.90;;;14.30;99.90;;;;;;5052250;28;20111;-65
2023/09/23 07:52:07;;;;;;;8.13;4.40;;;14.30;99.90;;;;;;5051902;28;20556;-65
2023/09/23 07:54:33;;;;;;;7.43;4.25;;;14.30;99.90;;;;;;5067121;28;20049;-65
2023/09/23 07:56:59;;;;;;;8.07;3.78;;;14.20;99.90;;;;;;5058987;28;20040;-65
2023/09/23 07:59:24;;;;;;;5.93;3.53;;;14.20;99.90;;;;;;5057703;28;20406;-65
2023/09/23 08:01:50;;;;;;;7.10;3.65;;;14.30;99.90;;;;;;5052455;28;20077;-65
2023/09/23 08:04:16;;;;;;;6.30;3.30;;;14.20;99.90;;;;;;5051998;28;20579;-65
2023/09/23 08:06:42;;;;;;;9.18;3.22;;;14.20;99.90;;;;;;5052469;28;20083;-65
2023/09/23 08:09:09;;;;;;;6.93;2.78;;;14.20;99.90;;;;;;5052169;28;20045;-65
2023/09/23 08:11:34;;;;;;;6.88;2.90;;;14.20;99.90;;;;;;5051463;28;20055;-65
2023/09/23 08:14:00;;;;;;;7.85;3.13;;;14.30;99.90;;;;;;5052997;28;20041;-65
2023/09/23 08:16:26;;;;;;;6.72;2.97;;;14.20;99.90;;;;;;5052073;28;20486;-65
2023/09/23 08:18:52;;;;;;;8.15;3.05;;;14.30;99.90;;;;;;5051210;28;20064;-65
2023/09/23 08:21:17;;;;;;;6.30;2.72;;;14.40;99.90;;;;;;5035207;28;20033;-65
2023/09/23 08:23:43;;;;;;;7.43;3.45;;;14.40;99.90;;;;;;5055326;28;20045;-65
2023/09/23 08:26:10;;;;;;;10.13;3.22;;;14.60;99.90;;;;;;5068264;28;20040;-65
2023/09/23 08:28:36;;;;;;;7.13;3.30;;;14.70;99.90;;;;;;5050595;28;20511;-65
2023/09/23 08:31:02;;;;;;;8.63;2.83;;;14.80;99.90;;;;;;5059337;28;20041;-65
2023/09/23 08:33:27;;;;;;;5.82;2.50;;;14.90;99.90;;;;;;5066676;28;20035;-65
2023/09/23 08:35:53;;;;;;;5.13;2.30;;;14.90;99.90;;;;;;5053099;28;20044;-65
2023/09/23 08:38:20;;;;;;;5.95;2.58;;;15.00;99.90;;;;;;5067240;28;20037;-65
2023/09/23 08:40:46;;;;;;;5.38;2.13;;;15.10;99.90;;;;;;5031247;28;20045;-65
2023/09/23 08:43:12;;;;;;;5.93;2.47;;;15.20;99.90;;;;;;5064968;28;20049;-65
2023/09/23 08:45:43;;;;;;;6.18;1.80;;;15.20;99.90;;;;;;5064595;28;20033;-65
2023/09/23 08:48:11;;;;;;;7.78;1.80;;;15.30;99.90;;;;;;5080578;28;20045;-65
2023/09/23 08:50:40;;;;;;;4.00;1.70;;;15.30;99.90;;;;;;5062898;28;20420;-65
2023/09/23 08:53:07;;;;;;;6.10;1.60;;;15.50;99.90;;;;;;5051494;28;20429;-65
2023/09/23 08:55:34;;;;;;;4.97;1.52;;;15.50;99.90;;;;;;5053403;28;20140;-66
2023/09/23 08:58:04;;;;;;;6.93;1.80;;;15.60;99.90;;;;;;5052057;28;20042;-65
2023/09/23 09:00:30;;;;;;;2.97;1.42;;;15.70;99.90;;;;;;5050168;28;20160;-65
2023/09/23 09:02:57;;;;;;;3.80;1.20;;;15.70;99.90;;;;;;5051380;28;20088;-65
2023/09/23 09:05:23;;;;;;;4.28;2.00;;;15.80;99.90;;;;;;5051007;28;20494;-65
2023/09/23 09:07:50;;;;;;;5.35;2.10;;;15.80;99.90;;;;;;5050708;28;20049;-65
2023/09/23 09:10:17;;;;;;;4.88;1.48;;;15.80;99.90;;;;;;5051356;28;20489;-65
2023/09/23 09:12:43;;;;;;;6.25;1.80;;;15.90;99.90;;;;;;5051266;28;20044;-65
2023/09/23 09:15:09;;;;;;;4.30;1.75;;;15.90;99.90;;;;;;5050382;28;20067;-65
2023/09/23 09:17:35;;;;;;;5.82;1.88;;;15.80;99.90;;;;;;5050822;28;20041;-65
2023/09/23 09:20:08;;;;;;;4.55;1.80;;;15.90;99.90;;;;;;5051596;28;20084;-65
2023/09/23 09:22:34;;;;;;;4.50;1.92;;;15.90;99.90;;;;;;5050284;28;20123;-65
2023/09/23 09:25:02;;;;;;;6.78;2.13;;;16.00;99.90;;;;;;5034924;28;20072;-65
2023/09/23 09:27:28;;;;;;;5.75;2.22;;;16.10;99.90;;;;;;5051486;28;20048;-65
2023/09/23 09:29:54;;;;;;;6.07;2.45;;;16.20;99.90;;;;;;5058801;28;20497;-65
2023/09/23 09:32:29;;;;;;;7.53;2.25;;;16.30;99.90;;;;;;5051726;28;20037;-65
2023/09/23 09:34:59;;;;;;;5.95;2.15;;;16.40;99.90;;;;;;5054303;28;20040;-65
2023/09/23 09:37:27;;;;;;;5.07;1.80;;;16.30;99.90;;;;;;5050425;28;20508;-65
2023/09/23 09:39:57;;;;;;;5.97;1.73;;;16.40;99.90;;;;;;5056376;28;20133;-65
2023/09/23 09:42:36;;;;;;;6.35;1.40;;;16.50;99.90;;;;;;5070545;28;20044;-65
2023/09/23 09:45:04;;;;;;;4.00;1.70;;;16.60;99.90;;;;;;5033365;28;20838;-65
2023/09/23 09:47:30;;;;;;;7.28;2.08;;;16.70;99.90;;;;;;5069151;28;20037;-64
2023/09/23 09:49:57;;;;;;;3.28;1.38;;;16.70;99.90;;;;;;5070192;28;20060;-65
2023/09/23 09:52:24;;;;;;;6.30;1.88;;;16.70;99.90;;;;;;5056531;28;20486;-65
2023/09/23 09:54:59;;;;;;;6.43;1.70;;;16.70;99.90;;;;;;5050558;28;20041;-65
2023/09/23 09:57:29;;;;;;;5.50;1.60;;;16.70;99.90;;;;;;5046069;28;20037;-65
2023/09/23 10:00:15;;;;;;;3.40;1.20;;;16.70;99.90;;;;;;5059222;28;20044;-65
2023/09/23 10:02:43;;;;;;;4.15;1.20;;;16.80;99.90;;;;;;5059161;28;20066;-65
2023/09/23 10:05:18;;;;;;;4.45;1.25;;;16.80;99.90;;;;;;5069302;28;20048;-65
2023/09/23 10:07:56;;;;;;;;;;;16.80;99.90;;;;;;5080506;28;20080;-65
2023/09/23 10:10:32;;;;;;;4.80;1.35;;;16.80;99.90;;;;;;5054635;28;19920;-65
2023/09/23 10:13:31;;;;;;;3.72;1.02;;;16.90;99.90;;;;;;5053622;28;20037;-65
2023/09/23 10:16:03;;;;;;;4.43;1.05;;;16.90;99.90;;;;;;5034439;28;20055;-65
2023/09/23 10:18:40;;;;;;;3.88;1.20;;;17.10;99.90;;;;;;5053334;28;20044;-65
2023/09/23 10:21:07;;;;;;;3.50;1.20;;;17.10;99.90;;;;;;5054719;28;20103;-65
2023/09/23 10:23:35;;;;;;;5.55;1.10;;;17.10;99.90;;;;;;5037580;28;20044;-65
2023/09/23 10:26:14;;;;;;;5.18;1.30;;;17.20;99.90;;;;;;5053845;28;20041;-65
2023/09/23 10:28:40;;;;;;;3.35;1.38;;;17.20;99.90;;;;;;5041084;28;20046;-65
2023/09/23 10:31:10;;;;;;;4.28;1.10;;;17.10;99.90;;;;;;5073633;28;20059;-65
2023/09/23 10:33:37;;;;;;;2.55;1.10;;;16.90;99.90;;;;;;5056706;28;20121;-65
2023/09/23 10:36:04;;;;;;;3.88;1.17;;;16.80;99.90;;;;;;5072986;28;20037;-65
2023/09/23 10:38:34;;;;;;;3.75;1.35;;;16.90;99.90;;;;;;5055855;28;20124;-65
2023/09/23 10:41:01;;;;;;;5.95;1.33;;;16.80;99.90;;;;;;5053919;28;20392;-65
2023/09/23 10:43:27;;;;;;;3.78;1.27;;;16.90;99.90;;;;;;5053787;28;20037;-65
2023/09/23 10:45:56;;;;;;;3.72;1.10;;;16.90;99.90;;;;;;5071715;28;20064;-65
2023/09/23 10:48:22;;;;;;;4.85;1.30;;;16.90;99.90;;;;;;5064962;28;20045;-65
2023/09/23 10:50:50;;;;;;;3.40;1.23;;;16.90;99.90;;;;;;5053814;28;20056;-65
2023/09/23 10:53:18;;;;;;;4.68;1.10;;;16.90;99.90;;;;;;5073589;28;20136;-65
2023/09/23 10:55:45;;;;;;;4.93;1.35;;;16.80;99.90;;;;;;5050910;28;20515;-65
2023/09/23 10:58:11;;;;;;;6.50;1.20;;;16.90;99.90;;;;;;5059726;28;20069;-65
2023/09/23 11:00:38;;;;;;;7.15;1.50;;;16.80;99.90;;;;;;5047805;28;20464;-65
2023/09/23 11:03:15;;;;;;;3.55;1.30;;;16.80;99.90;;;;;;5053911;28;20045;-65
2023/09/23 11:05:43;;;;;;;4.90;1.20;;;16.70;99.90;;;;;;5054130;28;20394;-65
2023/09/23 11:08:12;;;;;;;4.97;1.08;;;16.70;99.90;;;;;;5060883;28;20036;-65
2023/09/23 11:10:42;;;;;;;3.80;1.27;;;16.80;99.90;;;;;;5073129;28;20037;-65
2023/09/23 11:13:10;;;;;;;3.83;1.30;;;16.90;99.90;;;;;;5073071;28;20489;-65
2023/09/23 11:15:40;;;;;;;6.80;1.35;;;17.00;99.90;;;;;;5070888;28;20040;-65
2023/09/23 11:18:10;;;;;;;5.90;1.20;;;17.00;99.90;;;;;;5059014;28;20037;-65
2023/09/23 11:20:41;;;;;;;4.53;1.63;;;17.00;99.90;;;;;;5036635;28;20059;-65
2023/09/23 11:23:07;;;;;;;3.42;0.95;;;16.90;99.90;;;;;;5052526;28;20172;-65
2023/09/23 11:25:44;;;;;;;2.83;1.05;;;16.70;99.90;;;;;;5053171;28;20056;-66
2023/09/23 11:28:19;;;;;;;4.05;1.10;;;16.70;99.90;;;;;;5052346;28;20043;-65
2023/09/23 11:30:44;;;;;;;2.30;1.10;;;16.60;99.90;;;;;;5052942;28;20052;-65
2023/09/23 11:33:13;;;;;;;3.78;1.17;;;16.60;99.90;;;;;;5053162;28;20032;-66
2023/09/23 11:35:40;;;;;;;2.75;1.05;;;16.60;99.90;;;;;;5035526;28;20505;-66
2023/09/23 11:38:07;;;;;;;2.83;0.90;;;16.60;99.90;;;;;;5053341;28;20052;-65
2023/09/23 11:40:34;;;;;;;3.25;1.15;;;16.60;99.90;;;;;;5036497;28;20136;-65
2023/09/23 11:43:00;;;;;;;3.38;1.15;;;16.60;99.90;;;;;;5053366;28;20175;-65
2023/09/23 11:45:26;;;;;;;2.67;1.00;;;16.70;99.90;;;;;;5036021;28;20049;-65
2023/09/23 11:47:52;;;;;;;2.55;1.08;;;16.70;99.90;;;;;;5063008;28;20055;-65
2023/09/23 11:50:17;;;;;;;4.78;1.52;;;16.80;99.90;;;;;;5054732;28;21446;-65
2023/09/23 11:52:43;;;;;;;3.15;1.10;;;16.80;99.90;;;;;;5069872;28;20459;-65
2023/09/23 11:55:12;;;;;;;4.85;1.48;;;16.90;99.90;;;;;;5070685;28;20385;-63
2023/09/23 11:57:41;;;;;;;3.28;1.13;;;16.90;99.90;;;;;;5070261;28;20111;-65
2023/09/23 12:00:09;;;;;;;5.38;1.27;;;17.00;99.90;;;;;;5070695;28;20131;-67
2023/09/23 12:02:40;;;;;;;5.22;1.20;;;17.10;99.90;;;;;;5065208;28;20088;-65
2023/09/23 12:05:13;;;;;;;5.85;1.70;;;17.10;99.90;;;;;;5051731;28;20056;-65
2023/09/23 12:07:39;;;;;;;3.67;1.33;;;17.20;99.90;;;;;;5053437;28;20041;-65
2023/09/23 12:10:05;;;;;;;3.60;1.33;;;17.10;99.90;;;;;;5057980;28;20045;-65
2023/09/23 12:12:31;;;;;;;6.45;1.20;;;17.00;99.90;;;;;;5058166;28;20047;-65
2023/09/23 12:14:58;;;;;;;3.75;1.10;;;17.10;99.90;;;;;;5061595;28;20045;-65
2023/09/23 12:17:24;;;;;;;2.78;1.20;;;17.10;99.90;;;;;;5051483;28;20037;-64
2023/09/23 12:19:50;;;;;;;2.35;1.20;;;17.10;99.90;;;;;;5035296;28;20047;-64
2023/09/23 12:22:15;;;;;;;6.03;1.40;;;17.10;99.90;;;;;;5059322;28;20273;-65
2023/09/23 12:24:45;;;;;;;5.53;1.35;;;17.20;99.90;;;;;;5056874;28;20056;-65
2023/09/23 12:27:11;;;;;;;3.47;1.13;;;17.30;99.90;;;;;;5052053;28;20037;-64
2023/09/23 12:29:38;;;;;;;4.38;1.58;;;17.40;99.90;;;;;;5063641;28;20509;-64
2023/09/23 12:32:04;;;;;;;5.40;1.45;;;17.40;99.90;;;;;;5059344;28;20033;-64
2023/09/23 12:34:30;;;;;;;3.63;1.20;;;17.50;99.90;;;;;;5046180;28;20040;-64
2023/09/23 12:36:57;;;;;;;3.55;1.10;;;17.60;99.90;;;;;;5070710;28;20045;-64
2023/09/23 12:39:23;;;;;;;3.83;1.60;;;17.60;99.90;;;;;;5038415;28;20123;-64
2023/09/23 12:41:49;;;;;;;2.85;0.98;;;17.60;99.90;;;;;;5055905;28;20079;-64
2023/09/23 12:44:16;;;;;;;2.78;1.38;;;17.60;99.90;;;;;;5083936;28;20041;-65
2023/09/23 12:46:41;;;;;;;3.80;1.38;;;17.60;99.90;;;;;;5047629;28;20106;-64
2023/09/23 12:49:08;;;;;;;3.38;1.40;;;17.60;99.90;;;;;;5095236;28;20489;-65
2023/09/23 12:51:35;;;;;;;8.57;1.88;;;17.70;99.90;;;;;;5045408;28;20044;-64
2023/09/23 12:54:01;;;;;;;3.47;1.30;;;17.60;99.90;;;;;;5051830;28;20044;-64
2023/09/23 12:56:26;;;;;;;4.32;1.35;;;17.50;99.90;;;;;;5063753;28;20041;-64
2023/09/23 12:58:54;;;;;;;3.83;1.27;;;17.50;99.90;;;;;;5051703;28;20103;-64
2023/09/23 13:01:19;;;;;;;4.30;1.30;;;17.40;99.90;;;;;;5034063;28;20076;-64